Time;durP1;ratioP1;P1;durP2;ratioP2;P2;SDS_P1;SDS_P2;PMS_P1;PMS_P2;Temp;Humidity;BMP_temperature;BMP_pressure;BME280_temperature;BME280_humidity;BME280_pressure;Samples;Min_cycle;Max_cycle;Signal;HPM_P1;HPM_P2
2024/01/14 00:00:20;;;;;;;13.85;5.47;;;;;;;;;;5061844;28;20658;-81
2024/01/14 00:02:49;;;;;;;12.27;4.55;;;;;;;;;;5053097;28;20013;-80
2024/01/14 00:05:17;;;;;;;13.55;4.10;;;;;;;;;;5064417;28;20020;-80
2024/01/14 00:07:44;;;;;;;11.93;4.07;;;;;;;;;;5067843;28;20162;-81
2024/01/14 00:10:13;;;;;;;10.00;3.83;;;;;;;;;;5055842;28;20051;-80
2024/01/14 00:12:42;;;;;;;8.93;3.08;;;;;;;;;;5088113;28;20106;-81
2024/01/14 00:15:09;;;;;;;11.52;3.47;;;;;;;;;;5085540;28;20027;-81
2024/01/14 00:17:38;;;;;;;11.60;3.20;;;;;;;;;;5088430;28;20579;-81
2024/01/14 00:20:07;;;;;;;12.25;3.42;;;;;;;;;;5086292;28;20464;-82
2024/01/14 00:22:34;;;;;;;11.68;3.45;;;;;;;;;;5083115;28;20046;-83
2024/01/14 00:25:03;;;;;;;11.27;3.13;;;;;;;;;;5086211;28;20046;-82
2024/01/14 00:27:31;;;;;;;11.18;3.03;;;;;;;;;;5088836;28;20610;-82
2024/01/14 00:30:00;;;;;;;10.90;3.28;;;;;;;;;;5072829;28;20020;-82
2024/01/14 00:32:28;;;;;;;12.18;3.30;;;;;;;;;;5085658;28;20387;-82
2024/01/14 00:34:58;;;;;;;10.80;3.08;;;;;;;;;;5074351;28;20054;-81
2024/01/14 00:37:27;;;;;;;9.40;2.80;;;;;;;;;;5087694;27;20439;-83
2024/01/14 00:39:55;;;;;;;11.13;2.90;;;;;;;;;;5089350;28;20786;-82
2024/01/14 00:42:24;;;;;;;11.75;2.92;;;;;;;;;;5088174;28;22989;-81
2024/01/14 00:44:52;;;;;;;11.15;3.05;;;;;;;;;;5084743;27;20651;-82
2024/01/14 00:47:18;;;;;;;9.80;2.88;;;;;;;;;;5082666;27;20036;-81
2024/01/14 00:49:47;;;;;;;8.63;2.47;;;;;;;;;;5084265;27;20023;-81
2024/01/14 00:52:18;;;;;;;11.55;3.00;;;;;;;;;;5080352;28;20109;-81
2024/01/14 00:54:54;;;;;;;13.02;3.38;;;;;;;;;;5083037;28;20189;-82
2024/01/14 00:57:23;;;;;;;10.50;3.55;;;;;;;;;;5066694;28;20024;-81
2024/01/14 00:59:52;;;;;;;11.20;3.28;;;;;;;;;;5083237;28;20051;-81
2024/01/14 01:02:18;;;;;;;10.05;2.75;;;;;;;;;;5083094;27;20088;-82
2024/01/14 01:04:47;;;;;;;13.10;3.03;;;;;;;;;;5086046;28;20077;-82
2024/01/14 01:07:15;;;;;;;12.00;3.33;;;;;;;;;;5081130;28;20032;-81
2024/01/14 01:09:44;;;;;;;13.63;3.33;;;;;;;;;;5084712;28;20120;-81
2024/01/14 01:12:11;;;;;;;10.50;3.40;;;;;;;;;;5082018;28;20024;-81
2024/01/14 01:14:40;;;;;;;11.88;2.90;;;;;;;;;;5083070;27;20122;-80
2024/01/14 01:17:09;;;;;;;12.40;2.83;;;;;;;;;;5083595;27;20061;-82
2024/01/14 01:19:36;;;;;;;11.13;3.10;;;;;;;;;;5084076;27;20095;-80
2024/01/14 01:22:05;;;;;;;10.50;2.80;;;;;;;;;;5066432;27;20148;-81
2024/01/14 01:24:33;;;;;;;9.27;2.80;;;;;;;;;;5084267;27;20762;-83
2024/01/14 01:27:02;;;;;;;11.73;2.70;;;;;;;;;;5084606;28;20031;-80
2024/01/14 01:29:30;;;;;;;13.32;2.92;;;;;;;;;;5071346;28;20101;-81
2024/01/14 01:31:58;;;;;;;11.05;3.20;;;;;;;;;;5083152;28;20530;-82
2024/01/14 01:34:26;;;;;;;13.68;2.80;;;;;;;;;;5067701;28;20531;-82
2024/01/14 01:36:54;;;;;;;9.27;2.92;;;;;;;;;;5068026;28;20505;-82
2024/01/14 01:39:22;;;;;;;10.73;3.28;;;;;;;;;;5083210;27;20537;-82
2024/01/14 01:41:51;;;;;;;13.15;3.70;;;;;;;;;;5070329;28;20031;-81
2024/01/14 01:44:20;;;;;;;13.30;3.15;;;;;;;;;;5080020;28;20994;-82
2024/01/14 01:46:52;;;;;;;12.85;3.08;;;;;;;;;;5085089;27;20784;-82
2024/01/14 01:49:20;;;;;;;11.15;2.97;;;;;;;;;;5066671;28;20495;-80
2024/01/14 01:51:49;;;;;;;13.30;3.38;;;;;;;;;;5065766;28;20031;-80
2024/01/14 01:54:22;;;;;;;11.35;3.10;;;;;;;;;;5083761;27;20057;-80
2024/01/14 01:56:53;;;;;;;10.48;2.90;;;;;;;;;;5074288;28;20150;-81
2024/01/14 01:59:21;;;;;;;11.18;3.35;;;;;;;;;;5051547;28;20086;-80
2024/01/14 02:01:49;;;;;;;12.52;2.67;;;;;;;;;;5072703;28;20842;-80
2024/01/14 02:04:23;;;;;;;11.05;2.88;;;;;;;;;;5068551;28;20023;-81
2024/01/14 02:06:53;;;;;;;12.85;2.88;;;;;;;;;;5084802;28;20686;-81
2024/01/14 02:09:31;;;;;;;12.45;3.22;;;;;;;;;;5069214;28;20111;-81
2024/01/14 02:12:00;;;;;;;13.38;3.45;;;;;;;;;;5066041;28;20617;-81
2024/01/14 02:14:28;;;;;;;12.20;3.38;;;;;;;;;;5088157;27;20035;-80
2024/01/14 02:16:55;;;;;;;14.27;3.28;;;;;;;;;;5070036;28;20035;-79
2024/01/14 02:19:46;;;;;;;11.80;2.95;;;;;;;;;;5086664;27;20102;-80
2024/01/14 02:22:16;;;;;;;13.23;3.30;;;;;;;;;;5088466;28;20467;-82
2024/01/14 02:24:45;;;;;;;14.52;3.58;;;;;;;;;;5072726;27;20028;-80
2024/01/14 02:27:15;;;;;;;12.32;3.33;;;;;;;;;;5085581;27;20031;-80
2024/01/14 02:29:43;;;;;;;12.45;3.35;;;;;;;;;;5072046;28;20028;-81
2024/01/14 02:32:10;;;;;;;12.60;3.40;;;;;;;;;;5064415;28;20074;-81
2024/01/14 02:34:39;;;;;;;10.40;2.72;;;;;;;;;;5085712;27;20073;-80
2024/01/14 02:37:08;;;;;;;11.50;3.55;;;;;;;;;;5087597;28;20054;-80
2024/01/14 02:39:37;;;;;;;11.60;3.17;;;;;;;;;;5088202;27;20101;-82
2024/01/14 02:42:16;;;;;;;13.98;3.78;;;;;;;;;;5085566;27;20046;-81
2024/01/14 02:44:43;;;;;;;10.77;3.20;;;;;;;;;;5070620;28;20030;-81
2024/01/14 02:47:12;;;;;;;11.30;3.53;;;;;;;;;;5045442;28;20062;-81
2024/01/14 02:49:40;;;;;;;11.77;3.28;;;;;;;;;;5085841;27;20669;-81
2024/01/14 02:52:18;;;;;;;13.75;3.50;;;;;;;;;;5085013;27;20059;-81
2024/01/14 02:54:46;;;;;;;12.02;3.45;;;;;;;;;;5087849;27;20032;-81
2024/01/14 02:57:14;;;;;;;10.95;3.28;;;;;;;;;;5086787;27;20461;-81
2024/01/14 02:59:43;;;;;;;12.68;3.40;;;;;;;;;;5088819;28;20062;-81
2024/01/14 03:02:11;;;;;;;10.27;3.28;;;;;;;;;;5088741;28;20785;-81
2024/01/14 03:04:39;;;;;;;12.27;3.47;;;;;;;;;;5089257;27;20261;-81
2024/01/14 03:07:08;;;;;;;11.00;3.40;;;;;;;;;;5084231;28;20019;-82
2024/01/14 03:09:36;;;;;;;14.82;3.42;;;;;;;;;;5088940;28;20081;-85
2024/01/14 03:12:04;;;;;;;12.73;3.40;;;;;;;;;;5072704;28;20059;-83
2024/01/14 03:14:32;;;;;;;13.02;3.35;;;;;;;;;;5087656;27;20034;-83
2024/01/14 03:16:59;;;;;;;13.55;3.55;;;;;;;;;;5071161;28;20667;-82
2024/01/14 03:19:28;;;;;;;13.20;3.42;;;;;;;;;;5067882;27;20039;-83
2024/01/14 03:21:58;;;;;;;16.98;3.58;;;;;;;;;;5088001;27;20039;-83
2024/01/14 03:24:27;;;;;;;13.27;3.58;;;;;;;;;;5069670;28;20043;-83
2024/01/14 03:26:56;;;;;;;12.90;3.25;;;;;;;;;;5071867;28;20031;-83
2024/01/14 03:29:24;;;;;;;14.95;3.45;;;;;;;;;;5070164;27;20897;-83
2024/01/14 03:31:53;;;;;;;14.38;3.90;;;;;;;;;;5087357;27;20035;-83
2024/01/14 03:34:23;;;;;;;16.88;3.67;;;;;;;;;;5086196;27;20563;-82
2024/01/14 03:37:00;;;;;;;11.15;3.65;;;;;;;;;;5088254;27;20036;-82
2024/01/14 03:39:29;;;;;;;12.57;3.90;;;;;;;;;;5069233;28;20035;-82
2024/01/14 03:41:57;;;;;;;13.85;3.75;;;;;;;;;;5071171;28;20089;-82
2024/01/14 03:44:47;;;;;;;15.75;3.53;;;;;;;;;;5088062;28;20126;-83
2024/01/14 03:47:16;;;;;;;14.25;3.45;;;;;;;;;;5086097;28;20027;-83
2024/01/14 03:49:42;;;;;;;13.32;3.55;;;;;;;;;;5072556;28;20052;-83
2024/01/14 03:52:10;;;;;;;13.80;4.00;;;;;;;;;;5085015;28;20057;-82
2024/01/14 03:54:40;;;;;;;15.23;3.60;;;;;;;;;;5055536;28;20032;-82
2024/01/14 03:57:07;;;;;;;16.73;3.95;;;;;;;;;;5083426;28;20040;-82
2024/01/14 03:59:36;;;;;;;14.93;3.50;;;;;;;;;;5070120;28;20023;-82
2024/01/14 04:02:04;;;;;;;17.77;3.95;;;;;;;;;;5069112;28;20032;-82
2024/01/14 04:04:33;;;;;;;12.90;3.60;;;;;;;;;;5087132;27;20080;-81
2024/01/14 04:07:01;;;;;;;19.15;4.40;;;;;;;;;;5081742;28;20028;-82
2024/01/14 04:09:30;;;;;;;14.95;3.80;;;;;;;;;;5089698;27;20126;-83
2024/01/14 04:11:59;;;;;;;12.57;3.45;;;;;;;;;;5072523;28;20569;-83
2024/01/14 04:14:27;;;;;;;15.43;3.97;;;;;;;;;;5074046;28;20135;-82
2024/01/14 04:16:55;;;;;;;17.10;4.07;;;;;;;;;;5088577;28;20502;-82
2024/01/14 04:19:46;;;;;;;12.93;3.58;;;;;;;;;;5091508;27;20055;-82
2024/01/14 04:22:14;;;;;;;15.35;3.97;;;;;;;;;;5088827;27;20028;-83
2024/01/14 04:24:46;;;;;;;16.63;3.88;;;;;;;;;;5092692;27;20016;-82
2024/01/14 04:27:15;;;;;;;14.10;4.00;;;;;;;;;;5065447;28;20053;-83
2024/01/14 04:29:42;;;;;;;19.90;3.65;;;;;;;;;;5075581;28;20031;-83
2024/01/14 04:32:10;;;;;;;15.18;3.70;;;;;;;;;;5056192;28;20040;-82
2024/01/14 04:34:39;;;;;;;13.82;4.10;;;;;;;;;;5092800;28;20796;-83
2024/01/14 04:37:08;;;;;;;17.35;4.20;;;;;;;;;;5074497;28;20142;-83
2024/01/14 04:39:37;;;;;;;15.43;3.88;;;;;;;;;;5074281;28;20027;-84
2024/01/14 04:42:06;;;;;;;17.33;4.22;;;;;;;;;;5074959;28;20042;-83
2024/01/14 04:44:37;;;;;;;15.10;3.55;;;;;;;;;;5074820;28;20039;-83
2024/01/14 04:47:06;;;;;;;14.98;3.78;;;;;;;;;;5069385;28;20054;-83
2024/01/14 04:49:35;;;;;;;16.48;4.40;;;;;;;;;;5090136;28;20600;-83
2024/01/14 04:52:04;;;;;;;14.27;3.63;;;;;;;;;;5090632;27;20024;-83
2024/01/14 04:54:33;;;;;;;13.73;3.80;;;;;;;;;;5092289;28;20031;-83
2024/01/14 04:57:02;;;;;;;12.70;3.67;;;;;;;;;;5073923;28;20387;-83
2024/01/14 04:59:31;;;;;;;15.60;3.92;;;;;;;;;;5088458;27;20059;-83
2024/01/14 05:01:59;;;;;;;16.17;4.13;;;;;;;;;;5073185;28;20131;-83
2024/01/14 05:04:28;;;;;;;16.15;4.00;;;;;;;;;;5073007;27;20027;-83
2024/01/14 05:06:58;;;;;;;16.33;4.07;;;;;;;;;;5091287;27;20051;-83
2024/01/14 05:09:36;;;;;;;17.38;4.10;;;;;;;;;;5092452;28;20031;-83
2024/01/14 05:12:04;;;;;;;13.98;3.67;;;;;;;;;;5090642;28;20126;-83
2024/01/14 05:14:33;;;;;;;16.00;3.65;;;;;;;;;;5090381;27;20039;-83
2024/01/14 05:17:02;;;;;;;18.20;3.90;;;;;;;;;;5075838;28;20032;-83
2024/01/14 05:19:29;;;;;;;14.68;4.03;;;;;;;;;;5088912;27;20542;-83
2024/01/14 05:21:58;;;;;;;17.20;3.92;;;;;;;;;;5074848;28;20058;-84
2024/01/14 05:24:26;;;;;;;17.65;4.10;;;;;;;;;;5091006;28;20820;-83
2024/01/14 05:26:55;;;;;;;17.35;4.18;;;;;;;;;;5089415;27;20802;-84
2024/01/14 05:29:24;;;;;;;18.33;4.47;;;;;;;;;;5086269;27;20070;-83
2024/01/14 05:31:53;;;;;;;16.80;4.90;;;;;;;;;;5076154;28;20368;-83
2024/01/14 05:34:20;;;;;;;16.63;4.47;;;;;;;;;;5091116;27;20489;-83
2024/01/14 05:36:49;;;;;;;21.83;4.60;;;;;;;;;;5090802;27;20045;-83
2024/01/14 05:39:16;;;;;;;19.63;4.70;;;;;;;;;;5090557;27;20038;-84
2024/01/14 05:41:44;;;;;;;18.83;4.88;;;;;;;;;;5086719;28;20039;-84
2024/01/14 05:44:13;;;;;;;17.35;4.88;;;;;;;;;;5090701;28;20039;-85
2024/01/14 05:46:40;;;;;;;22.88;5.03;;;;;;;;;;5087951;27;20054;-82
2024/01/14 05:49:10;;;;;;;22.15;4.78;;;;;;;;;;5084292;27;20092;-85
2024/01/14 05:51:48;;;;;;;20.50;5.20;;;;;;;;;;5091207;27;20114;-82
2024/01/14 05:54:17;;;;;;;16.92;4.68;;;;;;;;;;5054267;28;20039;-82
2024/01/14 05:56:44;;;;;;;20.50;5.07;;;;;;;;;;5072189;28;20832;-83
2024/01/14 05:59:13;;;;;;;21.40;5.10;;;;;;;;;;5090477;28;20035;-85
2024/01/14 06:01:41;;;;;;;23.10;5.88;;;;;;;;;;5086493;28;20676;-84
2024/01/14 06:04:32;;;;;;;20.67;4.85;;;;;;;;;;5071558;28;20143;-82
2024/01/14 06:07:01;;;;;;;20.83;5.45;;;;;;;;;;5086112;27;20039;-84
2024/01/14 06:09:33;;;;;;;20.45;5.10;;;;;;;;;;5088761;27;20027;-84
2024/01/14 06:12:01;;;;;;;21.25;5.28;;;;;;;;;;5088131;28;20031;-84
2024/01/14 06:14:28;;;;;;;19.77;5.43;;;;;;;;;;5088911;27;20031;-84
2024/01/14 06:16:57;;;;;;;20.48;5.68;;;;;;;;;;5069001;28;20671;-84
2024/01/14 06:19:24;;;;;;;22.85;6.35;;;;;;;;;;5090347;27;20032;-84
2024/01/14 06:21:52;;;;;;;26.00;6.60;;;;;;;;;;5073352;28;20080;-84
2024/01/14 06:24:21;;;;;;;21.80;6.97;;;;;;;;;;5085556;27;20036;-84
2024/01/14 06:26:50;;;;;;;28.33;7.43;;;;;;;;;;5091206;28;20027;-84
2024/01/14 06:29:17;;;;;;;22.35;6.95;;;;;;;;;;5071159;28;20042;-84
2024/01/14 06:31:48;;;;;;;27.83;7.72;;;;;;;;;;5087554;28;20083;-84
2024/01/14 06:34:17;;;;;;;26.25;7.93;;;;;;;;;;5070332;27;20068;-85
2024/01/14 06:36:45;;;;;;;19.98;7.32;;;;;;;;;;5086520;28;20024;-84
2024/01/14 06:39:14;;;;;;;21.85;7.20;;;;;;;;;;5070253;28;20042;-84
2024/01/14 06:41:43;;;;;;;21.20;7.60;;;;;;;;;;5088655;27;20022;-84
2024/01/14 06:44:12;;;;;;;18.40;7.05;;;;;;;;;;5069813;28;20458;-83
2024/01/14 06:46:46;;;;;;;20.45;7.97;;;;;;;;;;5089815;28;20015;-84
2024/01/14 06:49:13;;;;;;;27.13;8.45;;;;;;;;;;5087314;27;20031;-84
2024/01/14 06:51:44;;;;;;;23.98;7.68;;;;;;;;;;5073390;28;20435;-84
2024/01/14 06:54:21;;;;;;;26.70;8.35;;;;;;;;;;5088880;27;20031;-85
2024/01/14 06:56:48;;;;;;;22.98;7.78;;;;;;;;;;5054998;28;20035;-83
2024/01/14 06:59:21;;;;;;;26.13;8.38;;;;;;;;;;5071070;28;20035;-83
2024/01/14 07:01:50;;;;;;;24.67;8.40;;;;;;;;;;5074248;28;20054;-83
2024/01/14 07:04:18;;;;;;;25.45;8.07;;;;;;;;;;5089749;27;20022;-83
2024/01/14 07:06:47;;;;;;;21.42;8.55;;;;;;;;;;5090360;27;20031;-83
2024/01/14 07:09:16;;;;;;;25.70;9.13;;;;;;;;;;5088884;27;20594;-84
2024/01/14 07:11:45;;;;;;;25.45;8.77;;;;;;;;;;5069748;28;20056;-83
2024/01/14 07:14:14;;;;;;;24.88;8.13;;;;;;;;;;5086291;28;20035;-84
2024/01/14 07:16:41;;;;;;;27.42;9.35;;;;;;;;;;5073591;28;20089;-84
2024/01/14 07:19:09;;;;;;;23.80;8.50;;;;;;;;;;5071013;27;20031;-83
2024/01/14 07:21:38;;;;;;;21.45;8.70;;;;;;;;;;5087949;28;20678;-84
2024/01/14 07:24:06;;;;;;;25.58;8.77;;;;;;;;;;5070723;28;20103;-84
2024/01/14 07:26:32;;;;;;;23.73;8.90;;;;;;;;;;5057109;28;20027;-84
2024/01/14 07:29:00;;;;;;;26.13;8.48;;;;;;;;;;5090790;28;20098;-84
2024/01/14 07:31:31;;;;;;;23.73;8.57;;;;;;;;;;5070536;28;20028;-83
2024/01/14 07:33:59;;;;;;;24.33;7.93;;;;;;;;;;5073896;28;20028;-84
2024/01/14 07:36:30;;;;;;;20.92;7.50;;;;;;;;;;5088594;28;20693;-83
2024/01/14 07:39:00;;;;;;;23.42;7.38;;;;;;;;;;5089776;28;20040;-83
2024/01/14 07:41:39;;;;;;;20.23;6.78;;;;;;;;;;5077269;28;20042;-84
2024/01/14 07:44:07;;;;;;;21.85;7.30;;;;;;;;;;5084153;27;20118;-83
2024/01/14 07:46:36;;;;;;;19.92;6.82;;;;;;;;;;5092164;27;20062;-83
2024/01/14 07:49:03;;;;;;;24.92;7.40;;;;;;;;;;5089986;27;20061;-83
2024/01/14 07:51:32;;;;;;;19.98;7.70;;;;;;;;;;5073779;28;20771;-83
2024/01/14 07:54:00;;;;;;;20.00;7.07;;;;;;;;;;5074486;28;20096;-84
2024/01/14 07:56:29;;;;;;;21.10;7.00;;;;;;;;;;5081442;27;20558;-83
2024/01/14 07:58:58;;;;;;;22.45;7.40;;;;;;;;;;5072421;28;20752;-83
2024/01/14 08:01:30;;;;;;;23.50;7.13;;;;;;;;;;5083341;28;20499;-83
2024/01/14 08:04:01;;;;;;;20.80;6.72;;;;;;;;;;5090634;27;20031;-83
2024/01/14 08:06:30;;;;;;;20.00;6.70;;;;;;;;;;5072036;28;20044;-82
2024/01/14 08:08:59;;;;;;;18.15;6.78;;;;;;;;;;5088395;27;20590;-83
2024/01/14 08:11:28;;;;;;;20.55;6.57;;;;;;;;;;5070113;28;20041;-82
2024/01/14 08:13:58;;;;;;;17.58;6.18;;;;;;;;;;5075215;28;20051;-82
2024/01/14 08:16:34;;;;;;;20.85;5.80;;;;;;;;;;5066136;28;20029;-83
2024/01/14 08:19:00;;;;;;;18.63;5.65;;;;;;;;;;5071117;28;20031;-82
2024/01/14 08:21:28;;;;;;;19.02;5.88;;;;;;;;;;5069890;28;20547;-83
2024/01/14 08:23:57;;;;;;;15.90;4.93;;;;;;;;;;5071137;28;20601;-82
2024/01/14 08:26:26;;;;;;;14.60;5.28;;;;;;;;;;5070221;28;20051;-82
2024/01/14 08:28:55;;;;;;;16.15;5.22;;;;;;;;;;5070380;28;20051;-81
2024/01/14 08:31:24;;;;;;;14.90;5.72;;;;;;;;;;5065705;28;20032;-82
2024/01/14 08:33:52;;;;;;;19.33;5.30;;;;;;;;;;5063954;28;20066;-82
2024/01/14 08:36:19;;;;;;;15.20;4.70;;;;;;;;;;5063990;28;20043;-84
2024/01/14 08:38:48;;;;;;;16.27;4.88;;;;;;;;;;5067003;28;20028;-82
2024/01/14 08:41:35;;;;;;;16.88;4.43;;;;;;;;;;5068235;28;20498;-81
2024/01/14 08:44:06;;;;;;;;;;;;;;;;;;5069574;28;20503;-84
2024/01/14 08:46:36;;;;;;;13.23;4.45;;;;;;;;;;5069884;28;19912;-83
2024/01/14 08:49:05;;;;;;;14.73;4.93;;;;;;;;;;5072646;28;20031;-83
2024/01/14 08:51:33;;;;;;;15.35;4.25;;;;;;;;;;5071143;28;20142;-83
2024/01/14 08:54:02;;;;;;;13.75;3.75;;;;;;;;;;5078946;28;20666;-84
2024/01/14 08:56:30;;;;;;;13.23;4.55;;;;;;;;;;5078036;28;20100;-84
2024/01/14 08:58:59;;;;;;;16.20;4.50;;;;;;;;;;5077769;28;20131;-83
2024/01/14 09:01:28;;;;;;;17.17;4.35;;;;;;;;;;5071476;28;20075;-82
2024/01/14 09:03:56;;;;;;;12.13;4.10;;;;;;;;;;5066710;28;20032;-83
2024/01/14 09:06:24;;;;;;;13.68;3.50;;;;;;;;;;5062806;28;20028;-83
2024/01/14 09:08:52;;;;;;;14.65;3.60;;;;;;;;;;5059953;28;20115;-82
2024/01/14 09:11:18;;;;;;;14.00;3.78;;;;;;;;;;5076835;28;21846;-83
2024/01/14 09:13:45;;;;;;;14.38;3.85;;;;;;;;;;5084434;27;20059;-82
2024/01/14 09:16:16;;;;;;;12.43;3.55;;;;;;;;;;5063923;28;20470;-83
2024/01/14 09:18:43;;;;;;;12.15;4.13;;;;;;;;;;5081543;28;20044;-82
2024/01/14 09:21:09;;;;;;;14.48;4.20;;;;;;;;;;5081751;28;20089;-82
2024/01/14 09:23:36;;;;;;;12.73;4.28;;;;;;;;;;5083102;28;20040;-82
2024/01/14 09:26:03;;;;;;;15.60;4.25;;;;;;;;;;5080380;28;20032;-82
2024/01/14 09:28:29;;;;;;;12.40;3.75;;;;;;;;;;5066851;28;20124;-81
2024/01/14 09:30:56;;;;;;;;;;;;;;;;;;5078437;27;20490;-85
2024/01/14 09:33:24;;;;;;;15.70;4.47;;;;;;;;;;5065542;27;20752;-82
2024/01/14 09:35:55;;;;;;;13.88;4.43;;;;;;;;;;5054017;28;20090;-81
2024/01/14 09:38:24;;;;;;;14.50;4.72;;;;;;;;;;5082367;27;20075;-80
2024/01/14 09:40:57;;;;;;;16.10;5.43;;;;;;;;;;5086303;27;20532;-80
2024/01/14 09:43:25;;;;;;;13.65;5.55;;;;;;;;;;5066981;28;20775;-79
2024/01/14 09:45:52;;;;;;;12.73;5.78;;;;;;;;;;5085404;27;20039;-82
2024/01/14 09:48:19;;;;;;;15.35;6.20;;;;;;;;;;5081172;27;20046;-81
2024/01/14 09:50:46;;;;;;;15.05;7.03;;;;;;;;;;5085329;27;20240;-83
2024/01/14 09:53:14;;;;;;;15.20;5.63;;;;;;;;;;5066138;27;20539;-80
2024/01/14 09:55:42;;;;;;;17.38;5.15;;;;;;;;;;5086289;27;20596;-83
2024/01/14 09:58:09;;;;;;;12.82;5.35;;;;;;;;;;5067871;27;20051;-82
2024/01/14 10:00:39;;;;;;;12.25;5.30;;;;;;;;;;5085322;27;20028;-82
2024/01/14 10:03:06;;;;;;;12.10;4.13;;;;;;;;;;5081290;27;20040;-82
2024/01/14 10:05:36;;;;;;;13.38;4.30;;;;;;;;;;5068760;28;20057;-83
2024/01/14 10:08:04;;;;;;;14.55;4.47;;;;;;;;;;5084550;27;20646;-82
2024/01/14 10:10:33;;;;;;;14.60;5.00;;;;;;;;;;5083657;27;20630;-81
2024/01/14 10:13:04;;;;;;;12.80;4.40;;;;;;;;;;5085256;27;20031;-80
2024/01/14 10:15:33;;;;;;;11.38;4.32;;;;;;;;;;5083155;27;20205;-82
2024/01/14 10:17:59;;;;;;;14.07;4.75;;;;;;;;;;5069359;27;20345;-81
2024/01/14 10:20:25;;;;;;;;;;;;;;;;;;5066963;27;20024;-82
2024/01/14 10:22:51;;;;;;;14.13;4.80;;;;;;;;;;5086645;27;19912;-82
2024/01/14 10:25:19;;;;;;;11.30;4.43;;;;;;;;;;5081945;28;20039;-82
2024/01/14 10:27:45;;;;;;;12.23;4.28;;;;;;;;;;5084751;27;20027;-86
2024/01/14 10:30:11;;;;;;;15.57;4.60;;;;;;;;;;5083823;28;20032;-85
2024/01/14 10:32:39;;;;;;;12.52;4.60;;;;;;;;;;5084109;28;20069;-84
2024/01/14 10:35:13;;;;;;;13.57;4.32;;;;;;;;;;5066820;28;20020;-84
2024/01/14 10:37:39;;;;;;;11.57;4.25;;;;;;;;;;5068127;28;20624;-82
2024/01/14 10:40:08;;;;;;;17.20;4.57;;;;;;;;;;5065325;28;20780;-85
2024/01/14 10:42:36;;;;;;;14.85;5.35;;;;;;;;;;5067369;28;20096;-82
2024/01/14 10:45:05;;;;;;;15.20;4.95;;;;;;;;;;5065308;28;20031;-84
2024/01/14 10:47:33;;;;;;;13.43;4.93;;;;;;;;;;5069728;28;20051;-84
2024/01/14 10:50:03;;;;;;;11.35;4.30;;;;;;;;;;5085177;28;20053;-83
2024/01/14 10:52:42;;;;;;;18.23;5.55;;;;;;;;;;5067726;28;20043;-83
2024/01/14 10:55:27;;;;;;;12.73;4.47;;;;;;;;;;5080316;28;20034;-86
2024/01/14 10:57:56;;;;;;;12.20;4.38;;;;;;;;;;5083404;28;20040;-83
2024/01/14 11:00:23;;;;;;;13.00;5.32;;;;;;;;;;5062033;28;20070;-83
2024/01/14 11:02:49;;;;;;;13.70;5.50;;;;;;;;;;5080477;27;20586;-84
2024/01/14 11:05:17;;;;;;;13.05;5.47;;;;;;;;;;5063046;28;20349;-82
2024/01/14 11:07:43;;;;;;;14.82;4.90;;;;;;;;;;5084329;27;20085;-83
2024/01/14 11:10:12;;;;;;;11.90;4.40;;;;;;;;;;5081676;27;20093;-84
2024/01/14 11:12:57;;;;;;;11.38;3.63;;;;;;;;;;5081367;27;20034;-83
2024/01/14 11:15:32;;;;;;;12.68;3.90;;;;;;;;;;5080587;28;21173;-82
2024/01/14 11:18:10;;;;;;;14.95;6.32;;;;;;;;;;5063147;28;20050;-81
2024/01/14 11:20:37;;;;;;;16.33;7.68;;;;;;;;;;5084985;27;20538;-84
2024/01/14 11:23:05;;;;;;;15.38;5.25;;;;;;;;;;5067339;27;20032;-81
2024/01/14 11:25:35;;;;;;;12.88;4.50;;;;;;;;;;5068733;28;20471;-83
2024/01/14 11:28:02;;;;;;;11.30;3.85;;;;;;;;;;5084003;27;20142;-83
2024/01/14 11:31:02;;;;;;;14.57;4.28;;;;;;;;;;5068427;28;20042;-81
2024/01/14 11:33:32;;;;;;;16.90;6.25;;;;;;;;;;5059977;28;20050;-81
2024/01/14 11:36:00;;;;;;;20.42;7.70;;;;;;;;;;5063155;28;20113;-82
2024/01/14 11:38:35;;;;;;;12.35;5.47;;;;;;;;;;5080489;28;20032;-82
2024/01/14 11:41:37;;;;;;;14.07;4.80;;;;;;;;;;5081926;28;20035;-82
2024/01/14 11:44:04;;;;;;;13.95;4.20;;;;;;;;;;5039301;28;20279;-81
2024/01/14 11:46:41;;;;;;;14.13;4.35;;;;;;;;;;5024807;28;20047;-81
2024/01/14 11:49:11;;;;;;;11.93;4.05;;;;;;;;;;5021705;28;20109;-80
2024/01/14 11:51:43;;;;;;;13.13;4.32;;;;;;;;;;5043454;28;20763;-81
2024/01/14 11:54:15;;;;;;;14.40;4.60;;;;;;;;;;5022986;28;20837;-81
2024/01/14 11:56:41;;;;;;;15.13;4.82;;;;;;;;;;5042076;28;20063;-82
2024/01/14 11:59:08;;;;;;;12.48;4.32;;;;;;;;;;5038289;28;20041;-84
2024/01/14 12:01:36;;;;;;;12.98;5.20;;;;;;;;;;5041709;28;20029;-81
2024/01/14 12:04:04;;;;;;;13.50;4.60;;;;;;;;;;5038054;28;20047;-83
2024/01/14 12:06:50;;;;;;;13.10;4.95;;;;;;;;;;5043374;28;20047;-84
2024/01/14 12:09:17;;;;;;;19.15;5.50;;;;;;;;;;5041117;28;21049;-83
2024/01/14 12:11:45;;;;;;;15.27;4.53;;;;;;;;;;5043553;28;20064;-84
2024/01/14 12:14:36;;;;;;;13.20;4.47;;;;;;;;;;5024875;28;20036;-84
2024/01/14 12:17:10;;;;;;;14.32;4.55;;;;;;;;;;5044985;28;20456;-83
2024/01/14 12:19:36;;;;;;;12.55;4.05;;;;;;;;;;5085624;28;20527;-84
2024/01/14 12:22:03;;;;;;;14.00;4.65;;;;;;;;;;5082774;28;20028;-84
2024/01/14 12:24:29;;;;;;;12.60;4.10;;;;;;;;;;5084701;27;20104;-84
2024/01/14 12:26:58;;;;;;;12.48;3.03;;;;;;;;;;5085271;28;20062;-85
2024/01/14 12:29:24;;;;;;;11.65;3.28;;;;;;;;;;5085280;28;20062;-85
2024/01/14 12:31:51;;;;;;;11.10;3.35;;;;;;;;;;5071450;28;20032;-84
2024/01/14 12:34:17;;;;;;;11.63;3.45;;;;;;;;;;5084208;27;20035;-84
2024/01/14 12:36:44;;;;;;;16.02;4.95;;;;;;;;;;5070249;28;20043;-84
2024/01/14 12:39:12;;;;;;;12.68;4.70;;;;;;;;;;5074803;28;20033;-85
2024/01/14 12:41:38;;;;;;;14.25;4.90;;;;;;;;;;5093861;27;20047;-85
2024/01/14 12:44:07;;;;;;;11.95;4.70;;;;;;;;;;5090696;28;20104;-85
2024/01/14 12:46:34;;;;;;;13.65;4.85;;;;;;;;;;5086904;27;20039;-85
2024/01/14 12:49:20;;;;;;;15.50;4.32;;;;;;;;;;5067730;28;20047;-85
2024/01/14 12:51:46;;;;;;;13.68;4.05;;;;;;;;;;5069639;28;20111;-85
2024/01/14 12:54:19;;;;;;;16.40;4.38;;;;;;;;;;5066861;28;20028;-85
2024/01/14 12:56:57;;;;;;;18.40;4.38;;;;;;;;;;5086973;28;20100;-83
2024/01/14 12:59:23;;;;;;;15.65;3.83;;;;;;;;;;5085149;27;20032;-84
2024/01/14 13:01:49;;;;;;;14.77;4.03;;;;;;;;;;5086614;27;20039;-84
2024/01/14 13:04:17;;;;;;;15.10;3.45;;;;;;;;;;5068952;28;20789;-84
2024/01/14 13:06:43;;;;;;;13.63;4.05;;;;;;;;;;5069206;28;20036;-83
2024/01/14 13:09:09;;;;;;;10.82;3.40;;;;;;;;;;5069940;28;20032;-85
2024/01/14 13:11:35;;;;;;;12.55;3.88;;;;;;;;;;5087239;28;20056;-84
2024/01/14 13:14:01;;;;;;;13.02;3.80;;;;;;;;;;5089028;28;20096;-84
2024/01/14 13:16:28;;;;;;;12.80;3.80;;;;;;;;;;5084783;28;20091;-84
2024/01/14 13:18:56;;;;;;;16.45;4.55;;;;;;;;;;5088372;28;20586;-86
2024/01/14 13:21:22;;;;;;;16.80;5.18;;;;;;;;;;5067106;28;20151;-84
2024/01/14 13:23:48;;;;;;;18.70;6.90;;;;;;;;;;5085995;28;20556;-85
2024/01/14 13:26:14;;;;;;;21.95;11.30;;;;;;;;;;5082771;28;20035;-84
2024/01/14 13:28:40;;;;;;;14.65;4.93;;;;;;;;;;5086158;28;20682;-83
2024/01/14 13:31:08;;;;;;;13.85;3.85;;;;;;;;;;5085077;28;20036;-83
2024/01/14 13:33:34;;;;;;;12.88;3.65;;;;;;;;;;5085415;28;20047;-84
2024/01/14 13:36:02;;;;;;;14.90;4.55;;;;;;;;;;5068570;28;20020;-84
2024/01/14 13:38:29;;;;;;;14.27;4.75;;;;;;;;;;5084840;27;20036;-84
2024/01/14 13:40:55;;;;;;;14.77;4.18;;;;;;;;;;5084634;28;20609;-84
2024/01/14 13:43:21;;;;;;;13.82;4.63;;;;;;;;;;5083727;28;20038;-85
2024/01/14 13:45:47;;;;;;;13.80;4.63;;;;;;;;;;5086327;27;20496;-85
2024/01/14 13:48:15;;;;;;;12.77;4.38;;;;;;;;;;5081956;27;20088;-85
2024/01/14 13:50:41;;;;;;;18.70;5.60;;;;;;;;;;5067292;28;20035;-85
2024/01/14 13:53:07;;;;;;;14.35;4.40;;;;;;;;;;5063676;28;20557;-85
2024/01/14 13:55:33;;;;;;;16.90;4.78;;;;;;;;;;5067971;28;20711;-83
2024/01/14 13:58:03;;;;;;;13.93;4.38;;;;;;;;;;5084193;27;20047;-83
2024/01/14 14:00:29;;;;;;;14.52;4.25;;;;;;;;;;5067964;28;20089;-83
2024/01/14 14:02:56;;;;;;;15.02;4.88;;;;;;;;;;5084627;27;20498;-84
2024/01/14 14:05:23;;;;;;;16.48;4.30;;;;;;;;;;5066644;28;20031;-84
2024/01/14 14:07:50;;;;;;;14.15;4.20;;;;;;;;;;5084220;28;20035;-83
2024/01/14 14:10:16;;;;;;;14.88;4.53;;;;;;;;;;5084399;27;20158;-84
2024/01/14 14:12:42;;;;;;;15.07;4.10;;;;;;;;;;5067950;28;20477;-85
2024/01/14 14:15:09;;;;;;;16.80;4.88;;;;;;;;;;5085840;28;20032;-84
2024/01/14 14:17:35;;;;;;;14.18;4.55;;;;;;;;;;5069995;28;20028;-83
2024/01/14 14:20:02;;;;;;;14.48;4.30;;;;;;;;;;5068451;28;20681;-84
2024/01/14 14:22:30;;;;;;;16.80;4.32;;;;;;;;;;5068406;28;20031;-84
2024/01/14 14:24:56;;;;;;;14.82;4.18;;;;;;;;;;5085660;27;20059;-83
2024/01/14 14:27:24;;;;;;;16.05;4.65;;;;;;;;;;5084370;27;20042;-84
2024/01/14 14:29:50;;;;;;;14.95;4.35;;;;;;;;;;5085695;28;20035;-84
2024/01/14 14:32:17;;;;;;;14.40;4.18;;;;;;;;;;5083368;27;20511;-82
2024/01/14 14:34:43;;;;;;;13.82;4.20;;;;;;;;;;5069642;28;20040;-84
2024/01/14 14:37:10;;;;;;;13.60;4.22;;;;;;;;;;5093979;28;20139;-83
2024/01/14 14:39:36;;;;;;;12.43;3.90;;;;;;;;;;5090755;28;20024;-83
2024/01/14 14:42:06;;;;;;;14.00;3.65;;;;;;;;;;5070383;28;20035;-83